Time;durP1;ratioP1;P1;durP2;ratioP2;P2;SDS_P1;SDS_P2;PMS_P1;PMS_P2;Temp;Humidity;BMP_temperature;BMP_pressure;BME280_temperature;BME280_humidity;BME280_pressure;Samples;Min_cycle;Max_cycle;Signal;HPM_P1;HPM_P2
2023/10/30 00:00:52;;;;;;;9.48;1.55;;;16.70;99.90;;;;;;5072143;28;20036;-68
2023/10/30 00:03:17;;;;;;;4.30;1.40;;;16.60;99.90;;;;;;5071874;28;20043;-69
2023/10/30 00:05:43;;;;;;;9.80;1.70;;;16.80;99.90;;;;;;5072248;28;20047;-68
2023/10/30 00:08:08;;;;;;;3.97;1.30;;;16.40;99.90;;;;;;5072055;28;20040;-67
2023/10/30 00:10:35;;;;;;;4.78;1.25;;;16.30;99.90;;;;;;5073351;28;20094;-68
2023/10/30 00:13:01;;;;;;;3.92;1.02;;;16.20;99.90;;;;;;5073153;28;20512;-68
2023/10/30 00:15:26;;;;;;;4.50;1.20;;;16.40;99.90;;;;;;5054979;28;20050;-68
2023/10/30 00:17:52;;;;;;;5.15;1.63;;;16.50;99.90;;;;;;5071875;28;20043;-68
2023/10/30 00:20:18;;;;;;;5.90;1.05;;;;;;;;;;5073170;28;20087;-69
2023/10/30 00:22:45;;;;;;;4.47;1.27;;;;;;;;;;5088602;28;20045;-69
2023/10/30 00:25:11;;;;;;;5.07;1.42;;;16.60;99.90;;;;;;5072876;28;20041;-68
2023/10/30 00:27:36;;;;;;;4.05;1.50;;;16.50;99.90;;;;;;5071536;28;20075;-68
2023/10/30 00:30:03;;;;;;;6.47;1.25;;;;;;;;;;5071906;28;20178;-69
2023/10/30 00:32:30;;;;;;;7.78;1.40;;;;;;;;;;5088334;28;20052;-69
2023/10/30 00:34:55;;;;;;;2.95;0.90;;;16.70;99.90;;;;;;5071133;28;20084;-68
2023/10/30 00:37:22;;;;;;;6.43;1.23;;;16.50;99.90;;;;;;5071305;28;20071;-69
2023/10/30 00:39:48;;;;;;;9.23;1.55;;;16.60;99.90;;;;;;5070555;28;20041;-68
2023/10/30 00:42:14;;;;;;;3.30;0.90;;;16.20;99.90;;;;;;5071361;28;20120;-68
2023/10/30 00:44:39;;;;;;;6.47;1.98;;;16.50;99.90;;;;;;5071226;28;20044;-68
2023/10/30 00:47:05;;;;;;;4.60;2.00;;;16.30;99.90;;;;;;5071036;28;20063;-68
2023/10/30 00:49:31;;;;;;;4.70;0.93;;;;;;;;;;5071227;28;20036;-69
2023/10/30 00:51:57;;;;;;;6.28;1.00;;;;;;;;;;5088121;28;20397;-69
2023/10/30 00:54:23;;;;;;;5.60;1.10;;;;;;;;;;5072553;28;20037;-69
2023/10/30 00:56:49;;;;;;;12.88;1.95;;;16.40;99.90;;;;;;5072673;28;20040;-69
2023/10/30 00:59:15;;;;;;;4.07;1.00;;;;;;;;;;5071475;28;20071;-68
2023/10/30 01:01:41;;;;;;;6.63;1.23;;;16.20;99.90;;;;;;5087805;28;20178;-68
2023/10/30 01:04:07;;;;;;;2.45;0.98;;;16.40;99.90;;;;;;5071114;28;20123;-68
2023/10/30 01:06:33;;;;;;;4.35;0.82;;;16.10;99.90;;;;;;5070904;28;20041;-68
2023/10/30 01:08:59;;;;;;;2.92;0.75;;;16.40;99.90;;;;;;5070872;28;20090;-68
2023/10/30 01:11:25;;;;;;;6.22;0.90;;;16.20;99.90;;;;;;5070747;28;20040;-68
2023/10/30 01:13:50;;;;;;;4.90;0.80;;;16.10;99.90;;;;;;5071774;28;20029;-68
2023/10/30 01:16:16;;;;;;;2.70;0.80;;;16.40;99.90;;;;;;5070580;28;20086;-69
2023/10/30 01:18:42;;;;;;;4.93;1.35;;;16.40;99.90;;;;;;5070692;28;20087;-68
2023/10/30 01:21:12;;;;;;;5.15;0.93;;;16.30;99.90;;;;;;5071988;28;20422;-68
2023/10/30 01:23:38;;;;;;;3.38;0.88;;;16.20;99.90;;;;;;5070467;28;20036;-68
2023/10/30 01:26:04;;;;;;;8.07;1.23;;;;;;;;;;5071864;28;20071;-68
2023/10/30 01:28:30;;;;;;;1.35;0.82;;;16.40;99.90;;;;;;5087457;28;20127;-68
2023/10/30 01:30:56;;;;;;;5.20;1.23;;;16.10;99.90;;;;;;5070447;28;20136;-68
2023/10/30 01:33:23;;;;;;;5.45;0.82;;;16.30;99.90;;;;;;5071686;28;20584;-68
2023/10/30 01:35:49;;;;;;;2.53;0.70;;;;;;;;;;5053669;28;20492;-68
2023/10/30 01:38:14;;;;;;;3.00;0.93;;;16.30;99.90;;;;;;5087147;28;20045;-68
2023/10/30 01:40:47;;;;;;;3.28;0.88;;;;;;;;;;5070311;28;20044;-68
2023/10/30 01:43:13;;;;;;;4.07;0.70;;;16.00;99.90;;;;;;5087317;28;20053;-66
2023/10/30 01:45:38;;;;;;;2.42;0.80;;;15.90;99.90;;;;;;5070312;28;20040;-68
2023/10/30 01:48:04;;;;;;;4.47;0.88;;;15.80;99.90;;;;;;5070230;28;20040;-68
2023/10/30 01:50:30;;;;;;;3.58;1.02;;;15.90;99.90;;;;;;5071425;28;20515;-68
2023/10/30 01:52:56;;;;;;;3.70;0.70;;;15.80;99.90;;;;;;5070614;28;20053;-68
2023/10/30 01:55:23;;;;;;;2.20;0.93;;;16.10;99.90;;;;;;5069985;28;20028;-68
2023/10/30 01:57:50;;;;;;;3.90;0.77;;;16.20;99.90;;;;;;5070107;28;20037;-68
2023/10/30 02:00:16;;;;;;;1.67;0.68;;;16.20;99.90;;;;;;5070531;28;20123;-68
2023/10/30 02:02:42;;;;;;;3.17;1.45;;;16.00;99.90;;;;;;5070169;28;20041;-68
2023/10/30 02:05:13;;;;;;;1.73;0.73;;;16.30;99.90;;;;;;5070045;28;20464;-68
2023/10/30 02:07:39;;;;;;;4.03;0.82;;;;;;;;;;5086370;22;20048;-74
2023/10/30 02:10:05;;;;;;;3.88;0.75;;;15.80;99.90;;;;;;5053611;28;20063;-75
2023/10/30 02:12:31;;;;;;;1.70;0.60;;;15.80;99.90;;;;;;5053442;28;20033;-75
2023/10/30 02:14:57;;;;;;;4.03;1.10;;;;;;;;;;5053091;28;20037;-75
2023/10/30 02:17:22;;;;;;;2.85;1.00;;;15.80;99.90;;;;;;5061500;28;20036;-75
2023/10/30 02:19:48;;;;;;;3.03;0.70;;;15.80;99.90;;;;;;5073496;28;20077;-75
2023/10/30 02:22:15;;;;;;;3.20;0.73;;;;;;;;;;5090364;28;20119;-75
2023/10/30 02:24:40;;;;;;;4.50;1.08;;;15.90;99.90;;;;;;5056744;28;20044;-75
2023/10/30 02:27:06;;;;;;;1.92;0.90;;;16.10;99.90;;;;;;5073304;28;20063;-75
2023/10/30 02:29:32;;;;;;;3.28;0.88;;;;;;;;;;5073157;28;20117;-75
2023/10/30 02:31:58;;;;;;;4.75;1.23;;;;;;;;;;5073490;28;20040;-75
2023/10/30 02:34:24;;;;;;;1.13;0.70;;;;;;;;;;5073005;28;20495;-76
2023/10/30 02:36:50;;;;;;;2.78;1.38;;;;;;;;;;5056515;28;20044;-75
2023/10/30 02:39:16;;;;;;;2.25;1.20;;;;;;;;;;5056687;28;20511;-74
2023/10/30 02:41:41;;;;;;;4.68;1.25;;;16.10;99.90;;;;;;5073471;28;20055;-75
2023/10/30 02:44:07;;;;;;;3.50;1.20;;;15.70;99.90;;;;;;5056548;28;20493;-75
2023/10/30 02:46:33;;;;;;;3.72;1.38;;;15.80;99.90;;;;;;5056439;28;20032;-75
2023/10/30 02:48:59;;;;;;;4.75;1.50;;;;;;;;;;5073427;28;20089;-75
2023/10/30 02:51:25;;;;;;;6.05;2.17;;;;;;;;;;5073317;28;20043;-75
2023/10/30 02:53:51;;;;;;;5.80;1.48;;;;;;;;;;5056237;28;20506;-74
2023/10/30 02:56:17;;;;;;;5.68;1.67;;;;;;;;;;5073236;28;20040;-74
2023/10/30 02:58:42;;;;;;;8.18;1.50;;;15.70;99.90;;;;;;5072978;28;20415;-75
2023/10/30 03:01:08;;;;;;;5.68;1.75;;;;;;;;;;5072949;28;20124;-75
2023/10/30 03:03:34;;;;;;;6.35;1.60;;;;;;;;;;5076181;28;20036;-74
2023/10/30 03:06:00;;;;;;;5.22;2.13;;;16.10;99.90;;;;;;5076865;28;20051;-74
2023/10/30 03:08:25;;;;;;;7.53;3.13;;;16.00;99.90;;;;;;5076500;28;20040;-75
2023/10/30 03:10:51;;;;;;;5.07;1.80;;;;;;;;;;5076531;28;20123;-75
2023/10/30 03:13:17;;;;;;;5.50;2.40;;;;;;;;;;5076283;28;20122;-75
2023/10/30 03:15:47;;;;;;;4.82;1.80;;;16.00;99.90;;;;;;5059702;28;20047;-73
2023/10/30 03:18:13;;;;;;;8.80;2.28;;;15.70;99.90;;;;;;5093260;28;20082;-74
2023/10/30 03:20:39;;;;;;;9.57;2.17;;;15.90;99.90;;;;;;5076524;28;20548;-75
2023/10/30 03:23:05;;;;;;;6.00;1.70;;;16.00;99.90;;;;;;5059996;28;20043;-75
2023/10/30 03:25:30;;;;;;;6.47;2.40;;;15.60;99.90;;;;;;5076428;28;20573;-75
2023/10/30 03:27:56;;;;;;;10.73;2.25;;;;;;;;;;5076422;28;20134;-75
2023/10/30 03:30:22;;;;;;;12.30;3.20;;;;;;;;;;5076142;28;20036;-75
2023/10/30 03:32:48;;;;;;;9.27;2.58;;;16.00;99.90;;;;;;5076361;28;20070;-73
2023/10/30 03:35:13;;;;;;;7.95;2.10;;;16.00;99.90;;;;;;5075932;28;20044;-75
2023/10/30 03:37:39;;;;;;;8.15;2.05;;;15.90;99.90;;;;;;5076173;28;20040;-75
2023/10/30 03:40:05;;;;;;;8.55;1.92;;;16.00;99.90;;;;;;5076010;28;20040;-75
2023/10/30 03:42:31;;;;;;;7.78;2.60;;;;;;;;;;5075973;28;20119;-75
2023/10/30 03:44:57;;;;;;;6.97;2.30;;;;;;;;;;5075746;28;20108;-75
2023/10/30 03:47:22;;;;;;;11.23;2.08;;;15.70;99.90;;;;;;5076015;28;20036;-75
2023/10/30 03:49:48;;;;;;;6.78;1.70;;;15.40;99.90;;;;;;5075822;28;20047;-75
2023/10/30 03:52:14;;;;;;;9.93;2.28;;;15.50;99.90;;;;;;5076098;28;20395;-75
2023/10/30 03:54:39;;;;;;;10.95;2.53;;;;;;;;;;5075507;28;20038;-75
2023/10/30 03:57:08;;;;;;;9.73;2.58;;;15.60;99.90;;;;;;5058840;28;20109;-75
2023/10/30 03:59:34;;;;;;;8.18;2.08;;;;;;;;;;5075638;28;20044;-75
2023/10/30 04:02:00;;;;;;;10.10;2.30;;;15.10;99.90;;;;;;5075811;28;20380;-75
2023/10/30 04:04:26;;;;;;;11.80;2.25;;;;;;;;;;5075379;28;20086;-76
2023/10/30 04:06:52;;;;;;;9.63;1.98;;;;;;;;;;5075571;28;20406;-75
2023/10/30 04:09:18;;;;;;;8.35;1.80;;;;;;;;;;5059195;28;20044;-75
2023/10/30 04:11:47;;;;;;;11.20;2.25;;;15.50;99.90;;;;;;5075300;28;20040;-75
2023/10/30 04:14:13;;;;;;;9.85;2.05;;;15.50;99.90;;;;;;5093183;28;20123;-74
2023/10/30 04:16:39;;;;;;;14.43;2.90;;;15.00;99.90;;;;;;5092027;28;20082;-75
2023/10/30 04:19:04;;;;;;;8.57;2.03;;;15.40;99.90;;;;;;5075255;28;20071;-75
2023/10/30 04:21:30;;;;;;;11.88;2.45;;;15.20;99.90;;;;;;5058402;28;20058;-74
2023/10/30 04:23:56;;;;;;;16.05;3.40;;;15.40;99.90;;;;;;5075217;28;20127;-75
2023/10/30 04:26:21;;;;;;;13.23;2.13;;;15.20;99.90;;;;;;5075247;28;20126;-75
2023/10/30 04:28:47;;;;;;;8.75;2.20;;;;;;;;;;5074962;28;20495;-75
2023/10/30 04:31:13;;;;;;;10.65;2.67;;;;;;;;;;5074923;28;20036;-74
2023/10/30 04:33:39;;;;;;;9.00;2.05;;;15.10;99.90;;;;;;5074857;28;20075;-74
2023/10/30 04:36:05;;;;;;;11.77;2.50;;;14.80;99.90;;;;;;5075038;28;20089;-75
2023/10/30 04:38:31;;;;;;;7.40;1.73;;;15.20;99.90;;;;;;5074883;28;20401;-74
2023/10/30 04:40:58;;;;;;;11.30;2.35;;;15.30;99.90;;;;;;5091593;28;20068;-75
2023/10/30 04:43:24;;;;;;;9.52;1.83;;;15.20;99.90;;;;;;5091726;28;20404;-74
2023/10/30 04:45:50;;;;;;;13.80;2.47;;;;;;;;;;5074688;28;20040;-75
2023/10/30 04:48:15;;;;;;;6.72;1.70;;;15.00;99.90;;;;;;5058046;28;20298;-74
2023/10/30 04:50:41;;;;;;;11.88;3.35;;;15.10;99.90;;;;;;5074536;28;20043;-75
2023/10/30 04:53:07;;;;;;;9.77;2.58;;;;;;;;;;5074884;28;20123;-74
2023/10/30 04:55:34;;;;;;;6.38;2.00;;;;;;;;;;5057549;28;20043;-74
2023/10/30 04:58:00;;;;;;;10.95;2.22;;;;;;;;;;5091563;28;20442;-75
2023/10/30 05:00:26;;;;;;;7.85;2.08;;;15.30;99.90;;;;;;5074431;28;20241;-74
2023/10/30 05:02:52;;;;;;;7.05;1.83;;;;;;;;;;5057834;28;20085;-75
2023/10/30 05:05:18;;;;;;;7.68;2.38;;;;;;;;;;5074175;28;20048;-75
2023/10/30 05:07:44;;;;;;;9.63;2.33;;;14.90;99.90;;;;;;5090971;28;20305;-74
2023/10/30 05:10:11;;;;;;;6.88;1.92;;;15.10;99.90;;;;;;5091128;28;20071;-75
2023/10/30 05:12:37;;;;;;;12.88;3.10;;;15.00;99.90;;;;;;5074272;28;20093;-75
2023/10/30 05:15:04;;;;;;;15.43;2.85;;;15.10;99.90;;;;;;5090980;28;20070;-74
2023/10/30 05:17:30;;;;;;;9.32;2.03;;;15.00;99.90;;;;;;5074067;28;20032;-75
2023/10/30 05:19:55;;;;;;;10.02;2.35;;;14.90;99.90;;;;;;5074125;28;20047;-75
2023/10/30 05:22:22;;;;;;;6.82;2.05;;;;;;;;;;5074154;28;20047;-75
2023/10/30 05:24:48;;;;;;;11.98;2.28;;;;;;;;;;5073469;28;20050;-75
2023/10/30 05:27:14;;;;;;;9.20;2.30;;;;;;;;;;5074296;28;20408;-74
2023/10/30 05:29:40;;;;;;;8.48;2.38;;;;;;;;;;5073904;28;20044;-74
2023/10/30 05:32:06;;;;;;;10.32;2.95;;;14.80;99.90;;;;;;5073865;28;20120;-75
2023/10/30 05:34:36;;;;;;;10.88;2.17;;;14.80;99.90;;;;;;5090468;28;20515;-75
2023/10/30 05:37:04;;;;;;;12.07;2.28;;;15.10;99.90;;;;;;5090501;28;20032;-75
2023/10/30 05:39:30;;;;;;;17.38;3.95;;;;;;;;;;5074044;28;20474;-75
2023/10/30 05:41:58;;;;;;;8.18;2.30;;;;;;;;;;5073865;28;20075;-75
2023/10/30 05:44:24;;;;;;;10.20;2.15;;;;;;;;;;5090613;28;20047;-75
2023/10/30 05:46:50;;;;;;;6.90;1.95;;;;;;;;;;5073862;28;20411;-75
2023/10/30 05:49:16;;;;;;;11.70;2.65;;;14.90;99.90;;;;;;5057372;28;20326;-75
2023/10/30 05:51:42;;;;;;;16.08;2.83;;;;;;;;;;5090565;28;20292;-74
2023/10/30 05:54:08;;;;;;;9.15;1.58;;;;;;;;;;5073760;28;20044;-74
2023/10/30 05:56:34;;;;;;;10.10;2.38;;;14.90;99.90;;;;;;5073564;28;20036;-75
2023/10/30 05:59:00;;;;;;;10.80;2.30;;;14.90;99.90;;;;;;5073786;28;20138;-74
2023/10/30 06:01:25;;;;;;;9.45;2.72;;;14.80;99.90;;;;;;5073646;28;20032;-75
2023/10/30 06:03:51;;;;;;;9.52;2.42;;;;;;;;;;5073421;28;20106;-74
2023/10/30 06:06:17;;;;;;;9.48;2.15;;;;;;;;;;5056844;28;20048;-75
2023/10/30 06:08:43;;;;;;;10.23;2.75;;;14.90;99.90;;;;;;5073405;28;20515;-75
2023/10/30 06:11:08;;;;;;;11.18;2.40;;;15.20;99.90;;;;;;5073994;28;20051;-75
2023/10/30 06:13:34;;;;;;;12.48;2.25;;;;;;;;;;5090426;28;20040;-75
2023/10/30 06:16:00;;;;;;;12.07;1.73;;;14.90;99.90;;;;;;5056871;28;20143;-75
2023/10/30 06:18:26;;;;;;;17.98;2.40;;;;;;;;;;5073602;28;20089;-75
2023/10/30 06:20:52;;;;;;;8.65;2.05;;;15.10;99.90;;;;;;5056503;28;20048;-75
2023/10/30 06:23:18;;;;;;;6.40;1.90;;;;;;;;;;5073260;28;20036;-75
2023/10/30 06:25:44;;;;;;;12.23;2.40;;;14.80;99.90;;;;;;5056715;28;20339;-75
2023/10/30 06:28:12;;;;;;;11.25;2.00;;;;;;;;;;5090107;28;20044;-74
2023/10/30 06:30:38;;;;;;;12.13;2.20;;;14.90;99.90;;;;;;5090162;28;20172;-74
2023/10/30 06:33:03;;;;;;;10.35;2.22;;;15.20;99.90;;;;;;5073300;28;20063;-75
2023/10/30 06:35:29;;;;;;;15.65;2.60;;;14.80;99.90;;;;;;5056277;28;20048;-75
2023/10/30 06:37:55;;;;;;;10.13;2.10;;;14.80;99.90;;;;;;5075822;28;20032;-75
2023/10/30 06:40:20;;;;;;;9.82;2.33;;;15.20;99.90;;;;;;5077112;28;20039;-75
2023/10/30 06:42:46;;;;;;;12.98;2.85;;;15.10;99.90;;;;;;5077040;28;20414;-75
2023/10/30 06:45:11;;;;;;;10.45;2.05;;;14.90;99.90;;;;;;5077087;28;20128;-74
2023/10/30 06:47:37;;;;;;;8.15;2.42;;;;;;;;;;5076963;28;20036;-75
2023/10/30 06:50:03;;;;;;;8.43;2.05;;;;;;;;;;5076797;28;20063;-75
2023/10/30 06:52:29;;;;;;;11.40;2.33;;;;;;;;;;5060225;28;20131;-75
2023/10/30 06:54:55;;;;;;;13.15;2.28;;;;;;;;;;5059834;28;20130;-75
2023/10/30 06:57:21;;;;;;;10.95;2.40;;;15.10;99.90;;;;;;5076714;28;20393;-74
2023/10/30 06:59:49;;;;;;;12.25;2.03;;;15.10;99.90;;;;;;5060116;28;20124;-74
2023/10/30 07:02:14;;;;;;;12.80;2.35;;;;;;;;;;5093594;28;20040;-75
2023/10/30 07:04:41;;;;;;;15.40;2.40;;;;;;;;;;5076312;28;20036;-75
2023/10/30 07:07:06;;;;;;;12.25;2.67;;;15.30;99.90;;;;;;5076389;28;20050;-75
2023/10/30 07:09:32;;;;;;;10.52;2.65;;;;;;;;;;5076637;28;20430;-74
2023/10/30 07:11:58;;;;;;;10.93;2.78;;;;;;;;;;5076476;28;20102;-75
2023/10/30 07:14:24;;;;;;;10.63;2.63;;;;;;;;;;5093070;28;20044;-75
2023/10/30 07:16:50;;;;;;;13.57;2.47;;;;;;;;;;5076593;28;20049;-75
2023/10/30 07:19:16;;;;;;;9.43;1.92;;;15.80;99.90;;;;;;5076224;28;20036;-75
2023/10/30 07:21:41;;;;;;;10.93;2.50;;;15.60;99.90;;;;;;5076341;28;20063;-75
2023/10/30 07:24:08;;;;;;;12.77;2.88;;;;;;;;;;5059687;28;20039;-75
2023/10/30 07:26:33;;;;;;;13.43;2.55;;;;;;;;;;5076093;28;20043;-75
2023/10/30 07:28:59;;;;;;;11.13;2.45;;;15.80;99.90;;;;;;5059779;28;20044;-75
2023/10/30 07:31:25;;;;;;;8.15;2.10;;;;;;;;;;5076169;28;20075;-74
2023/10/30 07:33:52;;;;;;;12.60;2.55;;;;;;;;;;5075671;28;20413;-75
2023/10/30 07:36:17;;;;;;;10.73;2.70;;;15.90;99.90;;;;;;5059208;28;20560;-75
2023/10/30 07:38:43;;;;;;;11.38;2.30;;;;;;;;;;5075965;28;20028;-75
2023/10/30 07:41:10;;;;;;;13.57;2.88;;;16.00;99.90;;;;;;5076059;28;20118;-75
2023/10/30 07:43:36;;;;;;;11.93;2.70;;;;;;;;;;5075762;28;20043;-75
2023/10/30 07:46:02;;;;;;;9.13;2.00;;;;;;;;;;5075926;28;20036;-75
2023/10/30 07:48:28;;;;;;;14.50;2.78;;;;;;;;;;5075515;28;20048;-75
2023/10/30 07:50:53;;;;;;;15.55;2.47;;;16.00;99.90;;;;;;5075850;28;20438;-75
2023/10/30 07:53:19;;;;;;;20.15;2.88;;;16.20;99.90;;;;;;5092765;28;20047;-75
2023/10/30 07:55:48;;;;;;;9.98;2.53;;;16.50;99.90;;;;;;5092685;28;20123;-75
2023/10/30 07:58:14;;;;;;;10.77;2.55;;;16.50;99.90;;;;;;5059043;28;20040;-75
2023/10/30 08:00:41;;;;;;;9.18;2.80;;;;;;;;;;5075902;28;20466;-75
2023/10/30 08:03:06;;;;;;;9.65;2.67;;;16.50;99.90;;;;;;5058888;28;20101;-76
2023/10/30 08:05:33;;;;;;;15.90;2.78;;;;;;;;;;5058850;28;20047;-76
2023/10/30 08:07:59;;;;;;;8.57;2.75;;;;;;;;;;5088531;22;20500;-68
2023/10/30 08:10:26;;;;;;;16.38;3.92;;;16.80;99.90;;;;;;5073264;28;20077;-69
2023/10/30 08:12:52;;;;;;;14.77;2.88;;;16.60;99.90;;;;;;5055736;28;20403;-68
2023/10/30 08:15:18;;;;;;;12.95;2.83;;;16.40;99.90;;;;;;5054974;28;20048;-68
2023/10/30 08:17:43;;;;;;;10.70;2.35;;;16.80;99.90;;;;;;5055179;28;20453;-68
2023/10/30 08:20:09;;;;;;;19.08;2.75;;;16.60;99.90;;;;;;5055225;28;20037;-69
2023/10/30 08:22:35;;;;;;;11.68;2.38;;;16.60;99.90;;;;;;5055209;28;20093;-68
2023/10/30 08:25:02;;;;;;;15.98;3.13;;;;;;;;;;5038403;28;20074;-68
2023/10/30 08:27:29;;;;;;;10.35;2.50;;;16.80;99.90;;;;;;5055176;28;20052;-68
2023/10/30 08:29:55;;;;;;;14.05;2.88;;;17.00;99.90;;;;;;5038448;28;20047;-69
2023/10/30 08:32:20;;;;;;;11.32;2.83;;;17.00;99.90;;;;;;5073224;28;20115;-69
2023/10/30 08:34:46;;;;;;;6.55;2.58;;;16.80;99.90;;;;;;5054923;28;20047;-69
2023/10/30 08:37:12;;;;;;;10.63;2.70;;;;;;;;;;5055115;28;20044;-69
2023/10/30 08:39:37;;;;;;;14.95;3.70;;;17.20;99.90;;;;;;5054684;28;20043;-68
2023/10/30 08:42:04;;;;;;;11.23;2.22;;;17.30;99.90;;;;;;5054904;28;20659;-69
2023/10/30 08:44:33;;;;;;;10.02;2.10;;;;;;;;;;5054421;28;20044;-68
2023/10/30 08:46:59;;;;;;;14.80;3.05;;;17.10;99.90;;;;;;5054762;28;20522;-69
2023/10/30 08:49:25;;;;;;;11.93;2.33;;;17.10;99.90;;;;;;5054950;28;20064;-69
2023/10/30 08:51:51;;;;;;;9.90;2.55;;;17.50;99.90;;;;;;5038039;28;20038;-69
2023/10/30 08:54:18;;;;;;;8.48;2.08;;;;;;;;;;5054520;28;20033;-69
2023/10/30 08:56:43;;;;;;;10.93;2.33;;;17.50;99.90;;;;;;5054843;28;20415;-69
2023/10/30 08:59:09;;;;;;;11.52;2.95;;;17.40;99.90;;;;;;5053915;28;20028;-69
2023/10/30 09:01:35;;;;;;;14.55;3.72;;;;;;;;;;5054434;28;20139;-68
2023/10/30 09:04:01;;;;;;;15.55;3.13;;;;;;;;;;5037806;28;20043;-69
2023/10/30 09:06:27;;;;;;;20.35;2.80;;;;;;;;;;5054428;28;20040;-70
2023/10/30 09:08:54;;;;;;;11.15;2.67;;;;;;;;;;5054515;28;20052;-70
2023/10/30 09:11:20;;;;;;;15.57;2.72;;;17.80;99.90;;;;;;5054607;28;20045;-70
2023/10/30 09:13:46;;;;;;;10.73;2.47;;;;;;;;;;5054264;28;20069;-69
2023/10/30 09:16:12;;;;;;;19.42;2.90;;;18.00;99.90;;;;;;5054285;28;20435;-69
2023/10/30 09:18:38;;;;;;;15.40;2.70;;;;;;;;;;5037448;28;20124;-70
2023/10/30 09:21:04;;;;;;;12.32;3.58;;;17.60;99.90;;;;;;5053997;28;20037;-69
2023/10/30 09:23:30;;;;;;;11.15;2.65;;;;;;;;;;5037362;28;20404;-69
2023/10/30 09:25:56;;;;;;;9.93;2.42;;;;;;;;;;5054043;28;20043;-70
2023/10/30 09:28:22;;;;;;;7.63;2.95;;;;;;;;;;5054070;28;20063;-69
2023/10/30 09:30:49;;;;;;;14.23;2.63;;;;;;;;;;5053901;28;20067;-69
2023/10/30 09:33:15;;;;;;;16.23;2.50;;;18.00;99.90;;;;;;5053639;28;20051;-68
2023/10/30 09:35:42;;;;;;;7.93;2.45;;;18.20;99.90;;;;;;5053769;28;20044;-69
2023/10/30 09:38:08;;;;;;;11.98;2.10;;;17.80;99.90;;;;;;5053859;28;20041;-69
2023/10/30 09:40:34;;;;;;;8.50;2.42;;;18.40;99.90;;;;;;5053708;28;20032;-68
2023/10/30 09:43:01;;;;;;;14.73;2.95;;;18.00;99.90;;;;;;5054005;28;20119;-69
2023/10/30 09:45:27;;;;;;;9.02;2.58;;;;;;;;;;5053520;28;20087;-69
2023/10/30 09:47:57;;;;;;;17.95;3.50;;;18.20;99.90;;;;;;5053713;28;20052;-70
2023/10/30 09:50:25;;;;;;;18.08;2.70;;;18.20;99.90;;;;;;5054137;28;20049;-69
2023/10/30 09:52:55;;;;;;;12.68;3.35;;;18.60;99.90;;;;;;5053628;28;20056;-69
2023/10/30 09:55:23;;;;;;;12.60;2.53;;;18.80;99.90;;;;;;5053166;28;20121;-69
2023/10/30 09:57:53;;;;;;;13.80;4.38;;;18.40;99.90;;;;;;5053543;28;20048;-69
2023/10/30 10:00:20;;;;;;;12.20;2.55;;;18.80;99.90;;;;;;5053594;28;20049;-69
2023/10/30 10:02:46;;;;;;;10.23;2.40;;;;;;;;;;5037373;28;20040;-71
2023/10/30 10:05:13;;;;;;;11.85;2.95;;;18.70;99.90;;;;;;5053278;28;20041;-70
2023/10/30 10:07:39;;;;;;;9.65;2.38;;;18.90;99.90;;;;;;5053231;28;20120;-69
2023/10/30 10:10:07;;;;;;;13.85;2.75;;;19.00;99.90;;;;;;5053383;28;20827;-69
2023/10/30 10:12:36;;;;;;;13.77;2.95;;;18.60;99.90;;;;;;5057331;28;20079;-68
2023/10/30 10:15:08;;;;;;;14.52;2.60;;;18.80;99.90;;;;;;5057464;28;20041;-69
2023/10/30 10:17:42;;;;;;;16.15;2.13;;;19.10;99.90;;;;;;5040909;28;20036;-69
2023/10/30 10:20:08;;;;;;;13.38;2.40;;;18.90;99.90;;;;;;5041179;28;20067;-70
2023/10/30 10:22:34;;;;;;;13.80;2.83;;;19.20;99.90;;;;;;5058017;28;20033;-70
2023/10/30 10:25:01;;;;;;;7.25;1.85;;;;;;;;;;5057392;28;20040;-70
2023/10/30 10:27:27;;;;;;;21.92;4.35;;;19.10;99.90;;;;;;5040741;28;20127;-69
2023/10/30 10:29:57;;;;;;;7.65;2.45;;;18.90;99.90;;;;;;5057454;28;20055;-70
2023/10/30 10:32:25;;;;;;;16.10;2.75;;;;;;;;;;5040635;28;20044;-70
2023/10/30 10:34:52;;;;;;;12.63;2.55;;;19.10;99.90;;;;;;5057043;28;20045;-70
2023/10/30 10:37:18;;;;;;;11.82;2.67;;;19.10;99.90;;;;;;5040508;28;20558;-69
2023/10/30 10:39:51;;;;;;;15.93;2.78;;;18.90;99.90;;;;;;5040562;28;20071;-70
2023/10/30 10:42:18;;;;;;;10.27;2.22;;;;;;;;;;5057218;28;20041;-68
2023/10/30 10:44:45;;;;;;;9.57;2.60;;;18.90;99.90;;;;;;5057245;28;20412;-69
2023/10/30 10:47:11;;;;;;;20.92;3.15;;;18.90;99.90;;;;;;5057177;28;20051;-69
2023/10/30 10:49:37;;;;;;;11.07;2.35;;;19.10;99.90;;;;;;5056810;28;20056;-69
2023/10/30 10:52:08;;;;;;;11.25;2.47;;;18.90;99.90;;;;;;5040395;28;20036;-69
2023/10/30 10:54:42;;;;;;;16.27;2.88;;;19.20;99.90;;;;;;5056925;28;20047;-70
2023/10/30 10:57:09;;;;;;;10.50;2.70;;;19.60;99.90;;;;;;5056816;28;20516;-70
2023/10/30 10:59:35;;;;;;;13.27;2.47;;;;;;;;;;5056625;28;20396;-69
2023/10/30 11:02:02;;;;;;;13.35;2.00;;;;;;;;;;5040039;28;20044;-69
2023/10/30 11:04:29;;;;;;;10.13;1.95;;;;;;;;;;5056723;28;20111;-69
2023/10/30 11:07:01;;;;;;;8.73;1.98;;;19.20;99.90;;;;;;5039721;28;20048;-69
2023/10/30 11:09:48;;;;;;;10.27;2.80;;;19.10;99.90;;;;;;5056584;28;20041;-69
2023/10/30 11:12:31;;;;;;;12.52;3.78;;;19.30;99.90;;;;;;5074449;28;20274;-69
2023/10/30 11:14:57;;;;;;;14.05;2.40;;;;;;;;;;5056239;28;20067;-70
2023/10/30 11:17:26;;;;;;;12.15;2.45;;;19.40;99.90;;;;;;5056305;28;20049;-70
2023/10/30 11:20:07;;;;;;;11.85;2.60;;;19.20;99.90;;;;;;5056687;28;20055;-69
2023/10/30 11:22:41;;;;;;;11.57;2.47;;;19.40;99.90;;;;;;5055968;28;20103;-70
2023/10/30 11:25:35;;;;;;;13.43;2.60;;;19.10;99.90;;;;;;5055954;28;20048;-69
2023/10/30 11:28:02;;;;;;;13.05;2.15;;;19.40;99.90;;;;;;5056062;28;20076;-69
2023/10/30 11:30:33;;;;;;;10.68;2.55;;;19.40;99.90;;;;;;5056138;28;20041;-69
2023/10/30 11:32:59;;;;;;;11.45;2.13;;;19.50;99.90;;;;;;5056044;28;20083;-69
2023/10/30 11:35:28;;;;;;;10.05;2.15;;;19.40;99.90;;;;;;5055788;28;20125;-69
2023/10/30 11:37:54;;;;;;;15.43;3.08;;;;;;;;;;5055986;28;20040;-70
2023/10/30 11:40:20;;;;;;;11.88;2.45;;;19.30;99.90;;;;;;5056211;28;20522;-69
2023/10/30 11:42:45;;;;;;;12.27;2.53;;;19.30;99.90;;;;;;5039666;28;20044;-70
2023/10/30 11:45:25;;;;;;;10.98;2.47;;;19.50;99.90;;;;;;5055619;28;20051;-69
2023/10/30 11:48:06;;;;;;;10.82;2.45;;;19.30;99.90;;;;;;5055722;28;20515;-71
2023/10/30 11:50:36;;;;;;;12.50;2.90;;;19.20;99.90;;;;;;5073624;28;20496;-69
2023/10/30 11:53:14;;;;;;;13.00;2.75;;;19.20;99.90;;;;;;5055980;28;20093;-69
2023/10/30 11:55:41;;;;;;;13.27;2.53;;;19.30;99.90;;;;;;5055645;28;20071;-69
2023/10/30 11:58:10;;;;;;;10.38;2.20;;;19.00;99.90;;;;;;5055550;28;20111;-69
2023/10/30 12:00:44;;;;;;;9.63;2.55;;;18.90;99.90;;;;;;5055803;28;20032;-69
2023/10/30 12:03:10;;;;;;;9.98;2.10;;;19.20;99.90;;;;;;5055534;28;20120;-70
2023/10/30 12:05:36;;;;;;;12.23;2.60;;;19.20;99.90;;;;;;5055691;28;20127;-69
2023/10/30 12:08:03;;;;;;;10.73;2.38;;;19.20;99.90;;;;;;5055341;28;20041;-69
2023/10/30 12:10:29;;;;;;;9.77;2.38;;;19.20;99.90;;;;;;5055393;28;20055;-69
2023/10/30 12:12:55;;;;;;;16.88;3.20;;;19.20;99.90;;;;;;5073257;28;20408;-69
2023/10/30 12:15:20;;;;;;;10.82;2.78;;;19.30;99.90;;;;;;5055120;28;20519;-69
2023/10/30 12:17:46;;;;;;;12.63;2.90;;;19.10;99.90;;;;;;5073175;28;20040;-69
2023/10/30 12:20:12;;;;;;;13.55;2.97;;;;;;;;;;5055290;28;20032;-69
2023/10/30 12:22:42;;;;;;;14.48;3.05;;;;;;;;;;5055196;28;20045;-69
2023/10/30 12:25:08;;;;;;;11.00;2.75;;;19.10;99.90;;;;;;5038298;28;20044;-69
2023/10/30 12:27:34;;;;;;;8.82;2.47;;;;;;;;;;5054791;28;20036;-68
2023/10/30 12:30:14;;;;;;;18.27;4.30;;;19.20;99.90;;;;;;5054944;28;20072;-69
2023/10/30 12:32:41;;;;;;;15.00;3.35;;;19.00;99.90;;;;;;5038744;28;20094;-69
2023/10/30 12:35:09;;;;;;;11.48;3.65;;;19.20;99.90;;;;;;5053692;28;20132;-68
2023/10/30 12:37:40;;;;;;;13.38;2.65;;;19.20;99.90;;;;;;5072800;28;20048;-68
2023/10/30 12:40:12;;;;;;;15.05;3.20;;;19.00;99.90;;;;;;5054867;28;20046;-68
2023/10/30 12:42:46;;;;;;;16.15;3.15;;;19.30;99.90;;;;;;5054815;28;20032;-68
2023/10/30 12:45:18;;;;;;;15.40;3.05;;;19.30;99.90;;;;;;5054853;28;20408;-68
2023/10/30 12:47:46;;;;;;;10.80;2.42;;;19.20;99.90;;;;;;5054649;28;20093;-68
2023/10/30 12:50:13;;;;;;;18.45;3.25;;;19.30;99.90;;;;;;5072439;28;20111;-68
2023/10/30 12:52:41;;;;;;;13.80;3.00;;;19.30;99.90;;;;;;5054622;28;20056;-68
2023/10/30 12:55:07;;;;;;;15.38;3.30;;;19.10;99.90;;;;;;5054304;28;20401;-68
2023/10/30 12:57:34;;;;;;;16.85;3.20;;;19.10;99.90;;;;;;5037835;28;20169;-68
2023/10/30 13:00:00;;;;;;;14.55;3.40;;;;;;;;;;5054480;28;20051;-70
2023/10/30 13:02:27;;;;;;;17.60;4.05;;;;;;;;;;5054417;28;20033;-70
2023/10/30 13:04:53;;;;;;;7.82;2.17;;;19.10;99.90;;;;;;5054377;28;20056;-68
2023/10/30 13:07:19;;;;;;;13.25;3.10;;;;;;;;;;5037549;28;20523;-66
2023/10/30 13:09:46;;;;;;;13.13;2.50;;;19.40;99.90;;;;;;5054272;28;20051;-68
2023/10/30 13:12:12;;;;;;;10.15;2.60;;;;;;;;;;5054237;28;20122;-68
2023/10/30 13:14:39;;;;;;;12.43;2.42;;;;;;;;;;5053988;28;20060;-69